createdAt,value
2024-02-13T00:00:57.109Z,98255.25
2024-02-13T00:03:59.307Z,98259.28
2024-02-13T00:07:01.554Z,98262.78
2024-02-13T00:10:04.260Z,98269.97
2024-02-13T00:13:06.500Z,98265.75
2024-02-13T00:16:08.693Z,98269.16
2024-02-13T00:19:12.690Z,98269.97
2024-02-13T00:22:16.041Z,98268.00
2024-02-13T00:25:19.534Z,98275.13
2024-02-13T00:28:21.844Z,98283.78
2024-02-13T00:31:24.532Z,98282.91
2024-02-13T00:34:27.175Z,98282.59
2024-02-13T00:37:29.920Z,98290.63
2024-02-13T00:40:32.019Z,98294.63
2024-02-13T00:43:34.357Z,98304.53
2024-02-13T00:46:36.553Z,98300.13
2024-02-13T00:49:39.038Z,98304.44
2024-02-13T00:52:43.703Z,98301.88
2024-02-13T00:55:46.866Z,98303.13
2024-02-13T00:58:49.197Z,98301.88
2024-02-13T01:01:51.454Z,98306.00
2024-02-13T01:04:53.606Z,98300.41
2024-02-13T01:07:55.860Z,98309.41
2024-02-13T01:10:58.043Z,98309.41
2024-02-13T01:14:01.458Z,98307.06
2024-02-13T01:17:03.938Z,98306.28
2024-02-13T01:20:10.072Z,98303.44
2024-02-13T01:23:13.423Z,98309.78
2024-02-13T01:26:15.915Z,98316.53
2024-02-13T01:29:18.962Z,98318.88
2024-02-13T01:32:21.285Z,98311.31
2024-02-13T01:35:23.658Z,98325.31
2024-02-13T01:38:29.181Z,98322.34
2024-02-13T01:41:31.477Z,98324.09
2024-02-13T01:44:33.968Z,98328.34
2024-02-13T01:47:37.701Z,98335.69
2024-02-13T01:50:40.067Z,98333.84
2024-02-13T01:53:43.700Z,98335.50
2024-02-13T01:56:50.230Z,98338.81
2024-02-13T01:59:53.101Z,98344.00
2024-02-13T02:02:55.849Z,98339.38
2024-02-13T02:06:02.547Z,98349.47
2024-02-13T02:09:04.944Z,98351.22
2024-02-13T02:12:07.465Z,98354.06
2024-02-13T02:15:11.885Z,98360.03
2024-02-13T02:18:14.531Z,98353.34
2024-02-13T02:21:16.915Z,98366.78
2024-02-13T02:24:19.035Z,98370.75
2024-02-13T02:27:21.672Z,98372.84
2024-02-13T02:30:23.938Z,98367.22
2024-02-13T02:33:26.257Z,98366.59
2024-02-13T02:36:28.464Z,98369.56
2024-02-13T02:39:30.691Z,98380.09
2024-02-13T02:42:33.031Z,98385.19
2024-02-13T02:45:35.275Z,98384.84
2024-02-13T02:48:38.956Z,98385.63
2024-02-13T02:51:41.383Z,98385.53
2024-02-13T02:54:44.893Z,98391.69
2024-02-13T02:57:47.227Z,98393.84
2024-02-13T03:00:49.870Z,98395.59
2024-02-13T03:03:52.581Z,98400.81
2024-02-13T03:06:55.280Z,98410.19
2024-02-13T03:09:57.645Z,98406.56
2024-02-13T03:12:59.870Z,98413.94
2024-02-13T03:16:03.813Z,98410.09
2024-02-13T03:19:07.165Z,98416.94
2024-02-13T03:22:09.723Z,98421.16
2024-02-13T03:25:11.923Z,98426.13
2024-02-13T03:28:14.126Z,98428.00
2024-02-13T03:31:16.424Z,98423.97
2024-02-13T03:34:18.598Z,98428.41
2024-02-13T03:37:21.053Z,98436.28
2024-02-13T03:40:23.525Z,98438.19
2024-02-13T03:43:25.745Z,98438.84
2024-02-13T03:46:27.938Z,98443.91
2024-02-13T03:49:30.198Z,98450.56
2024-02-13T03:52:32.476Z,98461.41
2024-02-13T03:55:34.691Z,98464.81
2024-02-13T03:58:37.029Z,98481.53
2024-02-13T04:01:39.227Z,98475.31
2024-02-13T04:04:41.470Z,98476.25
2024-02-13T04:07:44.369Z,98464.72
2024-02-13T04:10:48.544Z,98478.44
2024-02-13T04:13:50.826Z,98482.06
2024-02-13T04:16:53.146Z,98488.31
2024-02-13T04:19:55.421Z,98488.16
2024-02-13T04:22:57.661Z,98492.47
2024-02-13T04:25:59.904Z,98495.59
2024-02-13T04:29:02.160Z,98497.25
2024-02-13T04:32:04.754Z,98494.91
2024-02-13T04:35:08.995Z,98497.56
2024-02-13T04:38:11.276Z,98499.81
2024-02-13T04:41:13.577Z,98498.00
2024-02-13T04:44:15.906Z,98502.75
2024-02-13T04:47:18.174Z,98499.56
2024-02-13T04:50:21.448Z,98498.00
2024-02-13T04:53:24.002Z,98504.31
2024-02-13T04:56:27.486Z,98508.91
2024-02-13T04:59:38.727Z,98521.03
2024-02-13T05:02:41.307Z,98516.81
2024-02-13T05:06:05.261Z,98520.91
2024-02-13T05:09:07.893Z,98528.94
2024-02-13T05:12:10.408Z,98537.50
2024-02-13T05:15:12.697Z,98534.97
2024-02-13T05:18:15.100Z,98545.03
2024-02-13T05:21:20.490Z,98549.22
2024-02-13T05:24:22.665Z,98554.94
2024-02-13T05:27:26.539Z,98562.56
2024-02-13T05:30:28.606Z,98562.88
2024-02-13T05:33:31.015Z,98567.59
2024-02-13T05:36:34.318Z,98572.22
2024-02-13T05:39:37.258Z,98585.44
2024-02-13T05:42:39.633Z,98580.13
2024-02-13T05:45:41.871Z,98590.16
2024-02-13T05:48:44.518Z,98597.16
2024-02-13T05:51:47.054Z,98598.06
2024-02-13T05:54:49.311Z,98595.50
2024-02-13T05:57:52.172Z,98604.69
2024-02-13T06:00:55.829Z,98614.81
2024-02-13T06:04:02.690Z,98618.34
2024-02-13T06:07:06.686Z,98625.19
2024-02-13T06:10:11.207Z,98630.28
2024-02-13T06:13:15.879Z,98640.31
2024-02-13T06:16:19.095Z,98643.09
2024-02-13T06:19:21.505Z,98654.03
2024-02-13T06:22:23.782Z,98656.31
2024-02-13T06:25:25.998Z,98653.25
2024-02-13T06:28:28.212Z,98667.31
2024-02-13T06:31:36.033Z,98672.34
2024-02-13T06:34:38.290Z,98670.97
2024-02-13T06:37:41.595Z,98673.63
2024-02-13T06:40:44.292Z,98678.97
2024-02-13T06:43:46.577Z,98686.06
2024-02-13T06:46:49.182Z,98688.59
2024-02-13T06:49:51.557Z,98682.03
2024-02-13T06:52:55.369Z,98690.66
2024-02-13T06:55:57.567Z,98694.44
2024-02-13T06:58:59.796Z,98689.66
2024-02-13T07:02:02.096Z,98680.41
2024-02-13T07:05:07.554Z,98669.28
2024-02-13T07:08:09.811Z,98672.16
2024-02-13T07:11:12.198Z,98677.66
2024-02-13T07:14:14.578Z,98680.44
2024-02-13T07:17:16.827Z,98684.53
2024-02-13T07:20:19.158Z,98680.09
2024-02-13T07:23:21.672Z,98688.94
2024-02-13T07:26:23.973Z,98690.63
2024-02-13T07:29:26.448Z,98688.19
2024-02-13T07:32:28.851Z,98695.41
2024-02-13T07:35:34.193Z,98688.41
2024-02-13T07:38:36.609Z,98693.78
2024-02-13T07:41:39.165Z,98699.91
2024-02-13T07:44:42.196Z,98695.38
2024-02-13T07:47:46.701Z,98697.63
2024-02-13T07:50:49.604Z,98697.22
2024-02-13T07:53:51.938Z,98704.97
2024-02-13T07:56:54.486Z,98703.69
2024-02-13T07:59:57.462Z,98709.75
2024-02-13T08:03:00.864Z,98702.41
2024-02-13T08:06:03.555Z,98707.78
2024-02-13T08:09:06.691Z,98710.94
2024-02-13T08:12:10.045Z,98709.19
2024-02-13T08:15:12.769Z,98718.19
2024-02-13T08:18:15.481Z,98713.53
2024-02-13T08:21:18.350Z,98721.78
2024-02-13T08:24:22.157Z,98716.53
2024-02-13T08:27:25.356Z,98722.03
2024-02-13T08:30:28.797Z,98721.59
2024-02-13T08:36:33.434Z,98732.22
2024-02-13T08:39:37.219Z,98727.09
2024-02-13T08:42:39.536Z,98723.59
2024-02-13T08:45:42.660Z,98724.47
2024-02-13T08:48:45.050Z,98728.00
2024-02-13T08:51:47.496Z,98736.75
2024-02-13T08:54:50.294Z,98740.97
2024-02-13T08:57:55.776Z,98751.97
2024-02-13T09:00:58.010Z,98753.47
2024-02-13T09:04:01.069Z,98758.56
2024-02-13T09:07:04.150Z,98767.19
2024-02-13T09:10:06.886Z,98771.69
2024-02-13T09:13:09.188Z,98766.84
2024-02-13T09:16:13.825Z,98786.38
2024-02-13T09:19:16.680Z,98785.47
2024-02-13T09:22:19.024Z,98795.44
2024-02-13T09:25:21.746Z,98782.66
2024-02-13T09:28:24.681Z,98781.72
2024-02-13T09:31:26.857Z,98780.06
2024-02-13T09:34:29.800Z,98775.44
2024-02-13T09:37:33.195Z,98781.44
2024-02-13T09:40:35.939Z,98779.44
2024-02-13T09:43:42.903Z,98791.84
2024-02-13T09:46:48.726Z,98800.53
2024-02-13T09:49:51.449Z,98795.75
2024-02-13T09:52:57.283Z,98788.34
2024-02-13T09:56:00.086Z,98802.34
2024-02-13T09:59:04.823Z,98797.84
2024-02-13T10:02:07.970Z,98797.00
2024-02-13T10:05:11.936Z,98790.03
2024-02-13T10:08:15.626Z,98806.59
2024-02-13T10:11:19.343Z,98793.38
2024-02-13T10:14:22.806Z,98799.03
2024-02-13T10:17:25.499Z,98791.41
2024-02-13T10:20:31.682Z,98784.63
2024-02-13T10:23:37.018Z,98799.47
2024-02-13T10:26:39.764Z,98806.78
2024-02-13T10:29:44.442Z,98808.69
2024-02-13T10:32:46.979Z,98814.31
2024-02-13T10:35:54.199Z,98812.69
2024-02-13T10:39:02.300Z,98814.19
2024-02-13T10:42:11.470Z,98821.50
2024-02-13T10:45:16.151Z,98816.31
2024-02-13T10:48:41.834Z,98814.56
2024-02-13T10:51:45.827Z,98814.97
2024-02-13T10:54:50.159Z,98815.38
2024-02-13T10:57:53.248Z,98817.47
2024-02-13T11:00:56.598Z,98823.25
2024-02-13T11:03:59.823Z,98823.28
2024-02-13T11:07:03.397Z,98824.81
2024-02-13T11:10:09.746Z,98828.28
2024-02-13T11:13:12.096Z,98823.16
2024-02-13T11:16:15.766Z,98824.00
2024-02-13T11:19:21.012Z,98814.13
2024-02-13T11:22:38.503Z,98816.06
2024-02-13T11:25:43.775Z,98818.34
2024-02-13T11:28:48.163Z,98817.59
2024-02-13T11:31:59.175Z,98830.63
2024-02-13T11:35:02.536Z,98813.69
2024-02-13T11:38:13.637Z,98813.84
2024-02-13T11:41:21.916Z,98818.38
2024-02-13T11:44:24.366Z,98818.88
2024-02-13T11:47:27.272Z,98817.59
2024-02-13T11:50:36.001Z,98818.94
2024-02-13T11:53:41.962Z,98816.56
2024-02-13T11:56:44.264Z,98817.47
2024-02-13T12:00:00.973Z,98821.84
2024-02-13T12:03:05.768Z,98808.88
2024-02-13T12:06:08.449Z,98817.00
2024-02-13T12:09:13.433Z,98816.88
2024-02-13T12:12:15.892Z,98834.25
2024-02-13T12:15:21.939Z,98823.63
2024-02-13T12:18:24.284Z,98824.06
2024-02-13T12:21:27.857Z,98829.38
2024-02-13T12:24:33.522Z,98839.78
2024-02-13T12:27:36.230Z,98844.69
2024-02-13T12:30:39.683Z,98844.69
2024-02-13T12:33:42.794Z,98843.00
2024-02-13T12:36:45.599Z,98841.09
2024-02-13T12:39:48.583Z,98844.59
2024-02-13T12:42:50.938Z,98825.81
2024-02-13T12:45:53.090Z,98848.84
2024-02-13T12:48:57.783Z,98843.66
2024-02-13T12:52:00.894Z,98842.84
2024-02-13T12:55:03.229Z,98852.69
2024-02-13T12:58:08.852Z,98853.66
2024-02-13T13:01:12.064Z,98854.34
2024-02-13T13:04:16.764Z,98867.81
2024-02-13T13:07:20.892Z,98861.56
2024-02-13T13:10:24.493Z,98866.75
2024-02-13T13:13:27.625Z,98871.28
2024-02-13T13:16:31.736Z,98872.34
2024-02-13T13:19:35.069Z,98871.13
2024-02-13T13:22:42.230Z,98891.75
2024-02-13T13:25:53.099Z,98886.16
2024-02-13T13:28:55.686Z,98884.06
2024-02-13T13:31:57.966Z,98888.06
2024-02-13T13:35:01.986Z,98898.28
2024-02-13T13:38:05.089Z,98897.59
2024-02-13T13:41:08.488Z,98907.16
2024-02-13T13:44:11.977Z,98914.91
2024-02-13T13:47:14.255Z,98928.97
2024-02-13T13:50:19.575Z,98924.28
2024-02-13T13:53:24.121Z,98919.59
2024-02-13T13:56:26.533Z,98931.31
2024-02-13T13:59:28.745Z,98941.38
2024-02-13T14:02:31.732Z,98936.06
2024-02-13T14:05:43.263Z,98938.47
2024-02-13T14:08:46.323Z,98939.69
2024-02-13T14:11:48.912Z,98946.13
2024-02-13T14:14:53.971Z,98953.84
2024-02-13T14:17:59.325Z,98957.13
2024-02-13T14:21:01.844Z,98968.03
2024-02-13T14:24:05.714Z,98971.16
2024-02-13T14:27:08.630Z,98973.63
2024-02-13T14:30:11.889Z,98978.47
2024-02-13T14:33:14.729Z,98972.97
2024-02-13T14:36:17.940Z,98966.06
2024-02-13T14:39:20.485Z,98981.34
2024-02-13T14:42:23.025Z,98993.78
2024-02-13T14:45:26.856Z,98983.97
2024-02-13T14:48:29.513Z,98999.69
2024-02-13T14:51:31.998Z,98995.84
2024-02-13T14:54:36.700Z,98988.56
2024-02-13T14:57:46.954Z,99000.72
2024-02-13T15:00:58.579Z,99011.03
2024-02-13T15:04:03.674Z,99010.59
2024-02-13T15:07:06.268Z,99021.84
2024-02-13T15:10:12.887Z,99021.75
2024-02-13T15:13:16.395Z,99036.81
2024-02-13T15:16:19.044Z,99025.25
2024-02-13T15:19:22.347Z,99031.41
2024-02-13T15:22:31.035Z,99037.81
2024-02-13T15:25:41.706Z,99046.94
2024-02-13T15:28:44.402Z,99045.34
2024-02-13T15:31:47.086Z,99061.41
2024-02-13T15:34:49.574Z,99058.84
2024-02-13T15:38:10.313Z,99069.78
2024-02-13T15:41:30.881Z,99074.69
2024-02-13T15:44:52.861Z,99072.50
2024-02-13T15:47:55.249Z,99076.97
2024-02-13T15:50:59.363Z,99084.06
2024-02-13T15:54:04.348Z,99094.19
2024-02-13T15:57:09.943Z,99094.75
2024-02-13T16:00:23.060Z,99102.28
2024-02-13T16:03:26.075Z,99109.63
2024-02-13T16:06:28.468Z,99110.41
2024-02-13T16:09:31.995Z,99119.19
2024-02-13T16:12:38.374Z,99130.16
2024-02-13T16:15:41.012Z,99133.94
2024-02-13T16:18:45.737Z,99143.56
2024-02-13T16:21:48.331Z,99150.41
2024-02-13T16:24:50.651Z,99160.97
2024-02-13T16:27:52.930Z,99156.97
2024-02-13T16:30:55.181Z,99162.47
2024-02-13T16:33:57.539Z,99169.59
2024-02-13T16:36:59.838Z,99167.66
2024-02-13T16:40:03.091Z,99177.50
2024-02-13T16:43:05.737Z,99178.91
2024-02-13T16:46:13.530Z,99182.66
2024-02-13T16:49:15.953Z,99192.75
2024-02-13T16:52:20.014Z,99203.53
2024-02-13T16:55:25.701Z,99216.06
2024-02-13T16:58:28.779Z,99212.63
2024-02-13T17:01:31.300Z,99211.47
2024-02-13T17:04:33.506Z,99210.56
2024-02-13T17:07:36.898Z,99217.28
2024-02-13T17:10:43.332Z,99218.81
2024-02-13T17:13:46.330Z,99220.28
2024-02-13T17:16:48.438Z,99237.38
2024-02-13T17:19:50.495Z,99237.56
2024-02-13T17:22:55.046Z,99246.41
2024-02-13T17:25:57.263Z,99257.69
2024-02-13T17:29:00.237Z,99263.13
2024-02-13T17:32:02.302Z,99261.72
2024-02-13T17:35:05.998Z,99267.25
2024-02-13T17:38:08.485Z,99266.84
2024-02-13T17:41:13.018Z,99277.00
2024-02-13T17:44:15.311Z,99281.78
2024-02-13T17:47:17.579Z,99280.25
2024-02-13T17:50:19.908Z,99282.28
2024-02-13T17:53:22.687Z,99288.69
2024-02-13T17:56:28.661Z,99288.38
2024-02-13T17:59:31.324Z,99289.53
2024-02-13T18:02:33.942Z,99291.59
2024-02-13T18:05:36.297Z,99296.97
2024-02-13T18:08:38.582Z,99297.00
2024-02-13T18:11:40.915Z,99303.56
2024-02-13T18:14:43.640Z,99306.47
2024-02-13T18:17:46.456Z,99310.47
2024-02-13T18:20:49.105Z,99308.66
2024-02-13T18:23:55.503Z,99316.13
2024-02-13T18:26:58.342Z,99321.56
2024-02-13T18:30:00.681Z,99321.84
2024-02-13T18:33:03.086Z,99327.19
2024-02-13T18:36:05.855Z,99337.75
2024-02-13T18:39:08.189Z,99333.81
2024-02-13T18:42:10.507Z,99339.31
2024-02-13T18:45:13.539Z,99340.88
2024-02-13T18:48:16.009Z,99351.81
2024-02-13T18:51:20.208Z,99351.06
2024-02-13T18:54:23.803Z,99361.66
2024-02-13T18:57:26.445Z,99360.09
2024-02-13T19:00:29.752Z,99361.00
2024-02-13T19:03:32.315Z,99366.59
2024-02-13T19:06:34.553Z,99370.69
2024-02-13T19:09:36.885Z,99371.44
2024-02-13T19:12:39.545Z,99379.19
2024-02-13T19:15:41.861Z,99375.13
2024-02-13T19:18:44.405Z,99371.09
2024-02-13T19:21:47.875Z,99385.84
2024-02-13T19:24:50.651Z,99395.72
2024-02-13T19:27:54.099Z,99393.31
2024-02-13T19:30:56.263Z,99380.19
2024-02-13T19:33:58.615Z,99385.81
2024-02-13T19:37:01.587Z,99388.59
2024-02-13T19:40:05.500Z,99389.75
2024-02-13T19:43:07.688Z,99392.06
2024-02-13T19:46:11.836Z,99394.88
2024-02-13T19:49:15.926Z,99409.00
2024-02-13T19:52:18.617Z,99401.28
2024-02-13T19:55:20.846Z,99403.94
2024-02-13T19:58:23.058Z,99408.13
2024-02-13T20:01:25.303Z,99411.22
2024-02-13T20:04:28.873Z,99423.19
2024-02-13T20:07:31.731Z,99415.25
2024-02-13T20:10:35.630Z,99426.66
2024-02-13T20:13:39.113Z,99427.13
2024-02-13T20:16:41.282Z,99426.97
2024-02-13T20:19:43.547Z,99431.16
2024-02-13T20:22:47.063Z,99427.81
2024-02-13T20:25:49.341Z,99433.13
2024-02-13T20:28:53.090Z,99439.22
2024-02-13T20:31:55.280Z,99437.94
2024-02-13T20:34:57.431Z,99444.50
2024-02-13T20:37:59.477Z,99445.47
2024-02-13T20:41:01.798Z,99450.16
2024-02-13T20:44:05.605Z,99459.72
2024-02-13T20:47:08.173Z,99456.28
2024-02-13T20:50:13.707Z,99455.88
2024-02-13T20:53:16.035Z,99470.69
2024-02-13T20:56:18.524Z,99472.59
2024-02-13T20:59:21.064Z,99468.63
2024-02-13T21:02:23.497Z,99473.41
2024-02-13T21:05:26.094Z,99473.75
2024-02-13T21:08:28.414Z,99472.31
2024-02-13T21:11:32.078Z,99481.72
2024-02-13T21:14:34.765Z,99472.94
2024-02-13T21:17:42.582Z,99472.69
2024-02-13T21:20:47.292Z,99482.34
2024-02-13T21:23:52.624Z,99477.44
2024-02-13T21:26:55.188Z,99483.31
2024-02-13T21:29:57.386Z,99490.16
2024-02-13T21:32:59.643Z,99492.72
2024-02-13T21:36:02.074Z,99489.59
2024-02-13T21:39:09.157Z,99494.97
2024-02-13T21:42:11.773Z,99485.63
2024-02-13T21:45:14.122Z,99495.13
2024-02-13T21:48:16.489Z,99497.66
2024-02-13T21:51:18.831Z,99499.88
2024-02-13T21:54:21.025Z,99505.91
2024-02-13T21:57:24.981Z,99510.38
2024-02-13T22:00:27.886Z,99515.75
2024-02-13T22:03:30.109Z,99516.66
2024-02-13T22:06:34.548Z,99517.88
2024-02-13T22:09:36.756Z,99504.91
2024-02-13T22:12:42.261Z,99518.94
2024-02-13T22:15:46.532Z,99517.63
2024-02-13T22:18:48.929Z,99523.56
2024-02-13T22:21:51.435Z,99531.50
2024-02-13T22:24:53.699Z,99530.88
2024-02-13T22:27:56.246Z,99531.34
2024-02-13T22:30:58.505Z,99532.09
2024-02-13T22:34:00.801Z,99531.94
2024-02-13T22:37:03.061Z,99543.25
2024-02-13T22:40:05.443Z,99541.50
2024-02-13T22:43:08.273Z,99547.00
2024-02-13T22:46:13.147Z,99547.88
2024-02-13T22:49:15.434Z,99544.91
2024-02-13T22:52:17.727Z,99549.53
2024-02-13T22:55:20.352Z,99559.97
2024-02-13T22:58:22.708Z,99559.78
2024-02-13T23:01:25.356Z,99555.63
2024-02-13T23:04:27.583Z,99556.22
2024-02-13T23:07:30.075Z,99564.28
2024-02-13T23:10:32.443Z,99562.50
2024-02-13T23:13:40.514Z,99563.81
2024-02-13T23:16:47.008Z,99568.28
2024-02-13T23:19:49.544Z,99574.69
2024-02-13T23:22:51.764Z,99573.50
2024-02-13T23:25:53.970Z,99563.81
2024-02-13T23:28:57.287Z,99561.59
2024-02-13T23:31:59.899Z,99562.91
2024-02-13T23:35:03.204Z,99562.44
2024-02-13T23:38:09.175Z,99561.09
2024-02-13T23:41:11.505Z,99568.69
2024-02-13T23:44:13.661Z,99569.31
2024-02-13T23:47:16.910Z,99568.84
2024-02-13T23:50:19.705Z,99577.13
2024-02-13T23:53:22.749Z,99577.13
2024-02-13T23:56:26.418Z,99572.25
2024-02-13T23:59:28.864Z,99578.06
